Карточка аэропорта UAII

Внимание!
Информация на этой странице в стадии наполнения.
Если вы не увидели какой-то информации, или заметили неточность - пожалуйста сообщите нам!
Спасибо!
Команда RU-STAFF
Название аэропортаШымкент
Название аэропорта (англ.)Shymkent
Превышение1389 ft. (423.4 m.)
Координаты42°21.348', 69°28.734'
Высота перехода5000
Эшелон переходаFL70
Коды ответчика3430-3437, 3530-3537
Зона ОрВДШымкент РПИ (UAII)
Данные METARUAII 170200Z 12003MPS 8000 NSC 05/M01 Q1018 R10/0///70 NOSIG RMK QFE728/0971
Проноз погоды (TAF)UAII 162300Z 1700/1724 11003G08MPS 6000 NSC TX23/1710Z TN05/1701Z TEMPO 1700/1704 15003G08MPS 3100 FU BECMG 1704/1706 31003G08MPS TEMPO 1706/1715 35003G08MPS
NOTAMshow/hide NOTAM
AWOS   TABLE

Информация о ВПП

ВПП Длина ВПП (м.) Покрытие Курс ВПП Частота ILS
103300Железобетон106111.7
283300Железобетон286110.3

Диспетчерские позиции




Спутниковое изображение